createdAt,value
2023-02-24T00:02:04.843Z,100.00
2023-02-24T00:04:38.502Z,100.00
2023-02-24T00:07:05.993Z,100.00
2023-02-24T00:09:33.288Z,100.00
2023-02-24T00:12:05.464Z,100.00
2023-02-24T00:14:40.029Z,100.00
2023-02-24T00:17:09.980Z,100.00
2023-02-24T00:19:38.074Z,100.00
2023-02-24T00:29:47.402Z,100.00
2023-02-24T00:32:14.841Z,100.00
2023-02-24T00:34:42.062Z,100.00
2023-02-24T00:37:08.995Z,100.00
2023-02-24T00:39:37.371Z,100.00
2023-02-24T00:42:06.115Z,100.00
2023-02-24T00:44:35.734Z,100.00
2023-02-24T00:47:04.921Z,100.00
2023-02-24T00:49:32.600Z,100.00
2023-02-24T00:51:59.388Z,100.00
2023-02-24T00:54:28.327Z,100.00
2023-02-24T00:56:56.401Z,100.00
2023-02-24T00:59:24.081Z,100.00
2023-02-24T01:01:51.522Z,100.00
2023-02-24T01:04:19.988Z,100.00
2023-02-24T01:06:49.230Z,100.00
2023-02-24T01:09:19.568Z,100.00
2023-02-24T01:12:08.004Z,100.00
2023-02-24T01:14:35.691Z,100.00
2023-02-24T01:17:04.088Z,100.00
2023-02-24T01:19:32.222Z,100.00
2023-02-24T01:22:01.056Z,100.00
2023-02-24T01:24:29.293Z,100.00
2023-02-24T01:26:57.165Z,100.00
2023-02-24T01:29:24.125Z,100.00
2023-02-24T01:31:51.713Z,100.00
2023-02-24T01:34:18.675Z,100.00
2023-02-24T01:36:45.483Z,100.00
2023-02-24T01:39:13.530Z,100.00
2023-02-24T01:41:45.916Z,100.00
2023-02-24T01:44:17.014Z,100.00
2023-02-24T01:46:46.031Z,100.00
2023-02-24T01:49:17.345Z,100.00
2023-02-24T01:52:02.045Z,100.00
2023-02-24T01:54:34.050Z,100.00
2023-02-24T01:57:01.055Z,100.00
2023-02-24T01:59:30.257Z,100.00
2023-02-24T02:02:06.881Z,100.00
2023-02-24T02:04:46.170Z,100.00
2023-02-24T02:07:15.717Z,100.00
2023-02-24T02:09:44.004Z,100.00
2023-02-24T02:12:11.449Z,100.00
2023-02-24T02:14:43.142Z,100.00
2023-02-24T02:17:21.610Z,100.00
2023-02-24T02:20:16.159Z,100.00
2023-02-24T02:23:00.716Z,100.00
2023-02-24T02:25:57.775Z,100.00
2023-02-24T02:28:54.566Z,100.00
2023-02-24T02:31:22.202Z,100.00
2023-02-24T02:34:30.472Z,100.00
2023-02-24T02:36:57.051Z,100.00
2023-02-24T02:39:48.025Z,100.00
2023-02-24T02:42:17.259Z,100.00
2023-02-24T02:45:05.159Z,100.00
2023-02-24T02:47:54.577Z,100.00
2023-02-24T02:50:41.119Z,100.00
2023-02-24T02:53:13.136Z,100.00
2023-02-24T02:55:49.181Z,100.00
2023-02-24T02:58:20.972Z,100.00
2023-02-24T03:01:01.702Z,100.00
2023-02-24T03:03:46.510Z,100.00
2023-02-24T03:06:44.804Z,100.00
2023-02-24T03:09:19.477Z,100.00
2023-02-24T03:11:53.085Z,100.00
2023-02-24T03:14:24.733Z,100.00
2023-02-24T03:16:53.940Z,100.00
2023-02-24T03:19:27.397Z,100.00
2023-02-24T03:22:06.217Z,100.00
2023-02-24T03:24:36.492Z,100.00
2023-02-24T03:27:11.724Z,100.00
2023-02-24T03:29:50.428Z,100.00
2023-02-24T03:32:36.620Z,100.00
2023-02-24T03:35:15.403Z,100.00
2023-02-24T03:37:41.862Z,100.00
2023-02-24T03:40:14.449Z,100.00
2023-02-24T03:42:44.976Z,100.00
2023-02-24T03:45:12.275Z,100.00
2023-02-24T03:47:40.716Z,100.00
2023-02-24T03:50:17.858Z,100.00
2023-02-24T03:53:10.895Z,100.00
2023-02-24T03:56:10.911Z,100.00
2023-02-24T03:58:53.462Z,100.00
2023-02-24T04:01:46.527Z,100.00
2023-02-24T04:04:40.015Z,100.00
2023-02-24T04:07:17.518Z,100.00
2023-02-24T04:09:50.291Z,100.00
2023-02-24T04:12:28.162Z,100.00
2023-02-24T04:14:58.271Z,100.00
2023-02-24T04:17:37.829Z,100.00
2023-02-24T04:20:20.764Z,100.00
2023-02-24T04:22:51.845Z,100.00
2023-02-24T04:25:27.356Z,100.00
2023-02-24T04:27:58.410Z,100.00
2023-02-24T04:30:28.087Z,100.00
2023-02-24T04:32:56.519Z,100.00
2023-02-24T04:35:26.739Z,100.00
2023-02-24T04:37:53.747Z,100.00
2023-02-24T04:40:22.249Z,100.00
2023-02-24T04:42:51.761Z,100.00
2023-02-24T04:45:22.089Z,100.00
2023-02-24T04:47:51.195Z,100.00
2023-02-24T04:50:25.914Z,100.00
2023-02-24T04:53:01.314Z,100.00
2023-02-24T04:55:32.989Z,100.00
2023-02-24T04:58:01.229Z,100.00
2023-02-24T05:00:33.586Z,100.00
2023-02-24T05:03:01.873Z,100.00
2023-02-24T05:05:28.985Z,100.00
2023-02-24T05:07:57.593Z,100.00
2023-02-24T05:10:28.070Z,100.00
2023-02-24T05:12:58.302Z,100.00
2023-02-24T05:15:31.115Z,100.00
2023-02-24T05:18:07.309Z,100.00
2023-02-24T05:21:01.875Z,100.00
2023-02-24T05:23:34.225Z,100.00
2023-02-24T05:26:03.347Z,100.00
2023-02-24T05:28:31.734Z,100.00
2023-02-24T05:31:14.934Z,100.00
2023-02-24T05:33:43.507Z,100.00
2023-02-24T05:36:15.267Z,100.00
2023-02-24T05:38:41.873Z,100.00
2023-02-24T05:41:16.795Z,100.00
2023-02-24T05:43:54.964Z,100.00
2023-02-24T05:46:32.484Z,100.00
2023-02-24T05:49:01.545Z,100.00
2023-02-24T05:51:35.772Z,100.00
2023-02-24T05:54:04.797Z,100.00
2023-02-24T05:56:36.503Z,100.00
2023-02-24T05:59:06.560Z,100.00
2023-02-24T06:01:36.084Z,100.00
2023-02-24T06:04:05.965Z,100.00
2023-02-24T06:06:35.128Z,100.00
2023-02-24T06:09:07.593Z,100.00
2023-02-24T06:11:34.816Z,100.00
2023-02-24T06:14:02.395Z,100.00
2023-02-24T06:16:30.253Z,100.00
2023-02-24T06:18:57.945Z,100.00
2023-02-24T06:21:29.138Z,100.00
2023-02-24T06:24:00.812Z,100.00
2023-02-24T06:26:29.909Z,100.00
2023-02-24T06:28:58.659Z,100.00
2023-02-24T06:31:26.618Z,100.00
2023-02-24T06:33:53.902Z,100.00
2023-02-24T06:36:21.513Z,100.00
2023-02-24T06:38:49.614Z,100.00
2023-02-24T06:41:16.208Z,100.00
2023-02-24T06:43:45.151Z,99.82
2023-02-24T06:46:13.979Z,99.71
2023-02-24T06:48:41.698Z,99.19
2023-02-24T06:51:18.680Z,99.13
2023-02-24T06:53:45.539Z,98.86
2023-02-24T06:56:20.375Z,98.23
2023-02-24T06:58:50.563Z,98.92
2023-02-24T07:01:21.442Z,98.65
2023-02-24T07:04:17.816Z,98.64
2023-02-24T07:06:52.454Z,98.80
2023-02-24T07:09:22.574Z,97.79
2023-02-24T07:11:52.431Z,98.34
2023-02-24T07:14:27.999Z,97.31
2023-02-24T07:16:55.281Z,98.04
2023-02-24T07:19:26.650Z,97.83
2023-02-24T07:22:00.340Z,98.19
2023-02-24T07:24:46.028Z,97.95
2023-02-24T07:27:22.109Z,97.67
2023-02-24T07:29:52.765Z,97.83
2023-02-24T07:32:25.382Z,97.42
2023-02-24T07:34:52.737Z,97.50
2023-02-24T07:37:20.515Z,97.89
2023-02-24T07:39:47.433Z,97.43
2023-02-24T07:42:13.946Z,97.56
2023-02-24T07:44:40.572Z,97.58
2023-02-24T07:47:10.056Z,97.89
2023-02-24T07:49:39.164Z,97.38
2023-02-24T07:52:08.161Z,97.34
2023-02-24T07:54:35.168Z,97.25
2023-02-24T07:57:01.676Z,97.29
2023-02-24T07:59:33.855Z,97.72
2023-02-24T08:02:04.718Z,97.15
2023-02-24T08:04:33.051Z,97.46
2023-02-24T08:07:03.230Z,97.15
2023-02-24T08:09:46.478Z,97.74
2023-02-24T08:12:22.009Z,97.88
2023-02-24T08:14:52.174Z,97.46
2023-02-24T08:17:23.863Z,97.84
2023-02-24T08:20:12.036Z,98.42
2023-02-24T08:22:44.344Z,98.21
2023-02-24T08:25:18.517Z,98.38
2023-02-24T08:28:12.122Z,98.76
2023-02-24T08:30:46.032Z,99.35
2023-02-24T08:33:18.617Z,99.30
2023-02-24T08:35:45.378Z,99.60
2023-02-24T08:38:15.999Z,98.91
2023-02-24T08:40:51.302Z,99.70
2023-02-24T08:43:40.176Z,100.00
2023-02-24T08:46:18.381Z,99.86
2023-02-24T08:48:48.406Z,99.94
2023-02-24T08:51:35.669Z,100.00
2023-02-24T08:54:19.379Z,100.00
2023-02-24T08:56:56.012Z,100.00
2023-02-24T08:59:54.446Z,100.00
2023-02-24T09:02:27.423Z,100.00
2023-02-24T09:05:05.267Z,100.00
2023-02-24T09:07:37.954Z,100.00
2023-02-24T09:10:17.677Z,100.00
2023-02-24T09:12:44.853Z,100.00
2023-02-24T09:15:15.399Z,100.00
2023-02-24T09:17:47.086Z,100.00
2023-02-24T09:20:36.167Z,100.00
2023-02-24T09:23:04.218Z,100.00
2023-02-24T09:25:44.002Z,100.00
2023-02-24T09:28:25.688Z,100.00
2023-02-24T09:30:58.520Z,100.00
2023-02-24T09:33:38.981Z,100.00
2023-02-24T09:36:20.097Z,100.00
2023-02-24T09:38:57.750Z,100.00
2023-02-24T09:41:33.932Z,100.00
2023-02-24T09:44:18.230Z,100.00
2023-02-24T09:46:59.235Z,100.00
2023-02-24T09:49:46.579Z,100.00
2023-02-24T09:52:17.126Z,100.00
2023-02-24T09:55:08.441Z,100.00
2023-02-24T09:58:06.258Z,100.00
2023-02-24T10:00:35.202Z,100.00
2023-02-24T10:03:19.732Z,100.00
2023-02-24T10:06:12.330Z,100.00
2023-02-24T10:08:47.740Z,100.00
2023-02-24T10:11:15.068Z,100.00
2023-02-24T10:13:52.833Z,100.00
2023-02-24T10:16:24.067Z,100.00
2023-02-24T10:19:15.140Z,100.00
2023-02-24T10:22:02.962Z,100.00
2023-02-24T10:24:38.413Z,100.00
2023-02-24T10:27:41.389Z,100.00
2023-02-24T10:30:11.431Z,100.00
2023-02-24T10:32:51.056Z,100.00
2023-02-24T10:35:20.382Z,100.00
2023-02-24T10:37:49.445Z,100.00
2023-02-24T10:40:26.432Z,100.00
2023-02-24T10:43:10.678Z,100.00
2023-02-24T10:45:45.311Z,100.00
2023-02-24T10:48:40.748Z,100.00
2023-02-24T10:51:20.177Z,100.00
2023-02-24T10:54:10.362Z,100.00
2023-02-24T10:57:00.579Z,100.00
2023-02-24T10:59:48.208Z,100.00
2023-02-24T11:02:45.781Z,100.00
2023-02-24T11:05:45.943Z,100.00
2023-02-24T11:08:36.647Z,100.00
2023-02-24T11:11:30.781Z,100.00
2023-02-24T11:14:18.849Z,100.00
2023-02-24T11:17:13.728Z,100.00
2023-02-24T11:19:47.630Z,100.00
2023-02-24T11:22:20.335Z,100.00
2023-02-24T11:24:48.586Z,100.00
2023-02-24T11:27:18.349Z,100.00
2023-02-24T11:30:06.401Z,100.00
2023-02-24T11:32:38.793Z,100.00
2023-02-24T11:35:18.297Z,100.00
2023-02-24T11:38:12.221Z,100.00
2023-02-24T11:40:43.751Z,100.00
2023-02-24T11:43:20.911Z,100.00
2023-02-24T11:45:58.268Z,100.00
2023-02-24T11:48:32.404Z,100.00
2023-02-24T11:51:21.074Z,100.00
2023-02-24T11:53:51.245Z,100.00
2023-02-24T11:56:29.613Z,100.00
2023-02-24T11:59:40.428Z,100.00
2023-02-24T12:02:19.610Z,100.00
2023-02-24T12:05:07.330Z,100.00
2023-02-24T12:07:54.557Z,100.00
2023-02-24T12:10:27.494Z,100.00
2023-02-24T12:13:13.990Z,100.00
2023-02-24T12:15:50.079Z,100.00
2023-02-24T12:18:25.518Z,100.00
2023-02-24T12:20:57.095Z,100.00
2023-02-24T12:23:29.665Z,100.00
2023-02-24T12:25:56.080Z,100.00
2023-02-24T12:28:43.547Z,100.00
2023-02-24T12:31:55.620Z,100.00
2023-02-24T12:34:35.632Z,100.00
2023-02-24T12:37:17.620Z,100.00
2023-02-24T12:40:11.540Z,100.00
2023-02-24T12:42:45.266Z,100.00
2023-02-24T12:45:34.017Z,100.00
2023-02-24T12:48:51.399Z,100.00
2023-02-24T12:51:33.492Z,100.00
2023-02-24T12:53:59.958Z,100.00
2023-02-24T12:56:45.539Z,100.00
2023-02-24T12:59:17.041Z,99.54
2023-02-24T13:01:54.014Z,96.37
2023-02-24T13:04:35.407Z,97.05
2023-02-24T13:07:12.693Z,93.69
2023-02-24T13:10:00.662Z,94.32
2023-02-24T13:12:36.217Z,94.47
2023-02-24T13:15:07.710Z,94.38
2023-02-24T13:17:34.251Z,94.80
2023-02-24T13:20:11.487Z,95.21
2023-02-24T13:22:42.109Z,93.35
2023-02-24T13:25:08.574Z,93.42
2023-02-24T13:27:40.883Z,92.18
2023-02-24T13:30:17.807Z,91.03
2023-02-24T13:33:00.574Z,90.32
2023-02-24T13:35:27.033Z,89.54
2023-02-24T13:37:54.300Z,89.92
2023-02-24T13:40:23.940Z,91.85
2023-02-24T13:42:56.532Z,93.24
2023-02-24T13:45:25.856Z,91.55
2023-02-24T13:48:16.390Z,94.95
2023-02-24T13:50:57.962Z,97.54
2023-02-24T13:53:46.064Z,99.22
2023-02-24T13:56:30.737Z,99.48
2023-02-24T13:59:05.062Z,99.80
2023-02-24T14:01:44.572Z,100.00
2023-02-24T14:04:24.611Z,100.00
2023-02-24T14:06:56.606Z,100.00
2023-02-24T14:09:30.059Z,99.81
2023-02-24T14:12:03.187Z,100.00
2023-02-24T14:14:31.239Z,100.00
2023-02-24T14:16:57.746Z,99.03
2023-02-24T14:19:26.503Z,96.94
2023-02-24T14:21:59.113Z,97.81
2023-02-24T14:24:29.128Z,96.38
2023-02-24T14:26:57.719Z,97.26
2023-02-24T14:29:31.733Z,95.26
2023-02-24T14:31:59.400Z,96.65
2023-02-24T14:34:28.691Z,96.29
2023-02-24T14:36:57.830Z,93.76
2023-02-24T14:39:27.249Z,94.44
2023-02-24T14:42:23.293Z,94.79
2023-02-24T14:44:52.490Z,92.96
2023-02-24T14:47:21.577Z,93.61
2023-02-24T14:50:02.496Z,92.29
2023-02-24T14:52:35.809Z,92.43
2023-02-24T14:55:07.635Z,92.53
2023-02-24T14:57:39.888Z,92.88
2023-02-24T15:00:17.300Z,91.97
2023-02-24T15:02:49.309Z,92.06
2023-02-24T15:05:16.830Z,93.19
2023-02-24T15:07:46.746Z,89.88
2023-02-24T15:10:26.952Z,88.97
2023-02-24T15:13:09.931Z,88.83
2023-02-24T15:15:42.582Z,88.24
2023-02-24T15:18:29.448Z,88.66
2023-02-24T15:21:01.271Z,85.65
2023-02-24T15:23:34.290Z,83.03
2023-02-24T15:26:01.596Z,82.04
2023-02-24T15:28:31.303Z,83.59
2023-02-24T15:31:10.526Z,79.41
2023-02-24T15:33:40.491Z,77.56
2023-02-24T15:36:20.181Z,78.34
2023-02-24T15:38:51.139Z,81.04
2023-02-24T15:41:17.663Z,82.36
2023-02-24T15:43:45.639Z,79.26
2023-02-24T15:46:19.306Z,77.72
2023-02-24T15:48:51.666Z,79.01
2023-02-24T15:51:21.596Z,78.73
2023-02-24T15:53:48.387Z,79.60
2023-02-24T15:56:17.245Z,80.85
2023-02-24T15:58:44.044Z,82.64
2023-02-24T16:01:12.733Z,84.33
2023-02-24T16:03:40.108Z,85.33
2023-02-24T16:06:13.468Z,87.11
2023-02-24T16:08:44.838Z,87.84
2023-02-24T16:11:13.057Z,89.12
2023-02-24T16:13:40.589Z,90.89
2023-02-24T16:16:10.763Z,92.40
2023-02-24T16:18:37.418Z,92.67
2023-02-24T16:21:04.104Z,95.01
2023-02-24T16:23:38.585Z,94.34
2023-02-24T16:26:05.233Z,93.68
2023-02-24T16:28:32.109Z,92.47
2023-02-24T16:30:58.843Z,93.15
2023-02-24T16:33:25.735Z,93.35
2023-02-24T16:35:55.407Z,92.82
2023-02-24T16:38:26.396Z,92.78
2023-02-24T16:40:54.442Z,94.30
2023-02-24T16:43:21.162Z,94.08
2023-02-24T16:45:47.762Z,94.39
2023-02-24T16:48:20.941Z,93.69
2023-02-24T16:50:47.962Z,94.06
2023-02-24T16:53:18.735Z,93.58
2023-02-24T16:55:46.552Z,94.04
2023-02-24T16:58:14.011Z,93.79
2023-02-24T17:00:43.186Z,94.27
2023-02-24T17:03:16.676Z,94.59
2023-02-24T17:05:44.318Z,94.44
2023-02-24T17:08:11.378Z,94.70
2023-02-24T17:10:39.933Z,95.13
2023-02-24T17:13:06.991Z,95.69
2023-02-24T17:15:33.605Z,95.91
2023-02-24T17:18:00.069Z,95.71
2023-02-24T17:20:26.614Z,95.59
2023-02-24T17:22:53.474Z,95.78
2023-02-24T17:25:23.549Z,96.27
2023-02-24T17:27:52.066Z,96.09
2023-02-24T17:30:24.392Z,95.73
2023-02-24T17:32:51.078Z,95.33
2023-02-24T17:35:17.898Z,95.54
2023-02-24T17:37:44.449Z,94.94
2023-02-24T17:40:12.137Z,94.62
2023-02-24T17:42:39.277Z,94.27
2023-02-24T17:45:07.341Z,93.87
2023-02-24T17:47:34.478Z,94.09
2023-02-24T17:50:01.991Z,94.49
2023-02-24T17:52:29.541Z,94.06
2023-02-24T17:54:56.252Z,94.70
2023-02-24T17:57:22.813Z,93.86
2023-02-24T17:59:49.344Z,93.79
2023-02-24T18:02:17.533Z,92.87
2023-02-24T18:04:44.170Z,93.22
2023-02-24T18:07:12.260Z,92.03
2023-02-24T18:09:38.816Z,92.90
2023-02-24T18:12:05.682Z,94.02
2023-02-24T18:14:32.490Z,94.46
2023-02-24T18:16:59.063Z,94.88
2023-02-24T18:19:25.617Z,95.25
2023-02-24T18:21:52.199Z,95.30
2023-02-24T18:24:18.725Z,93.45
2023-02-24T18:26:45.203Z,91.32
2023-02-24T18:29:11.676Z,91.02
2023-02-24T18:31:38.367Z,90.27
2023-02-24T18:34:05.063Z,89.69
2023-02-24T18:36:31.682Z,89.79
2023-02-24T18:38:58.236Z,90.10
2023-02-24T18:41:25.001Z,90.51
2023-02-24T18:43:54.646Z,90.67
2023-02-24T18:46:22.386Z,90.63
2023-02-24T18:48:50.291Z,90.58
2023-02-24T18:51:20.979Z,90.27
2023-02-24T18:53:49.288Z,90.03
2023-02-24T18:56:18.885Z,89.99
2023-02-24T18:58:46.879Z,89.68
2023-02-24T19:01:16.005Z,89.43
2023-02-24T19:03:43.603Z,89.22
2023-02-24T19:06:11.428Z,88.93
2023-02-24T19:08:38.714Z,89.36
2023-02-24T19:11:10.324Z,89.14
2023-02-24T19:13:37.233Z,88.99
2023-02-24T19:16:04.903Z,89.58
2023-02-24T19:18:32.059Z,89.34
2023-02-24T19:20:58.758Z,89.12
2023-02-24T19:23:25.375Z,89.42
2023-02-24T19:25:52.128Z,89.36
2023-02-24T19:28:18.750Z,89.57
2023-02-24T19:30:45.356Z,89.65
2023-02-24T19:33:12.067Z,89.74
2023-02-24T19:35:43.162Z,89.79
2023-02-24T19:38:15.189Z,89.63
2023-02-24T19:40:41.941Z,89.33
2023-02-24T19:43:08.645Z,89.13
2023-02-24T19:45:35.471Z,89.29
2023-02-24T19:48:02.045Z,88.28
2023-02-24T19:50:28.525Z,88.24
2023-02-24T19:52:54.960Z,87.32
2023-02-24T19:55:21.605Z,86.87
2023-02-24T19:57:48.126Z,87.16
2023-02-24T20:00:14.788Z,86.96
2023-02-24T20:02:41.328Z,86.99
2023-02-24T20:05:10.293Z,86.98
2023-02-24T20:07:37.120Z,86.88
2023-02-24T20:10:04.294Z,86.86
2023-02-24T20:12:30.968Z,87.15
2023-02-24T20:14:58.466Z,87.23
2023-02-24T20:17:24.977Z,87.65
2023-02-24T20:19:51.415Z,86.99
2023-02-24T20:22:18.052Z,87.10
2023-02-24T20:24:44.534Z,87.10
2023-02-24T20:27:10.977Z,87.02
2023-02-24T20:29:37.716Z,87.42
2023-02-24T20:32:04.573Z,86.58
2023-02-24T20:34:31.430Z,86.93
2023-02-24T20:36:57.971Z,86.16
2023-02-24T20:39:24.895Z,86.01
2023-02-24T20:41:53.555Z,85.28
2023-02-24T20:44:20.849Z,84.94
2023-02-24T20:46:47.455Z,85.63
2023-02-24T20:49:14.962Z,84.81
2023-02-24T20:51:43.516Z,85.36
2023-02-24T20:54:12.305Z,84.97
2023-02-24T20:56:41.419Z,84.93
2023-02-24T20:59:21.915Z,85.42
2023-02-24T21:01:49.590Z,86.02
2023-02-24T21:04:19.317Z,86.42
2023-02-24T21:06:47.866Z,86.02
2023-02-24T21:09:15.601Z,86.79
2023-02-24T21:11:42.123Z,86.93
2023-02-24T21:14:14.474Z,86.62
2023-02-24T21:16:40.976Z,87.30
2023-02-24T21:19:07.544Z,87.46
2023-02-24T21:21:34.022Z,88.16
2023-02-24T21:24:00.767Z,89.66
2023-02-24T21:26:29.109Z,91.04
2023-02-24T21:28:57.848Z,91.83
2023-02-24T21:31:25.509Z,92.43
2023-02-24T21:33:53.186Z,93.43
2023-02-24T21:36:21.581Z,93.54
2023-02-24T21:38:48.648Z,94.58
2023-02-24T21:41:15.996Z,95.31
2023-02-24T21:43:43.573Z,94.63
2023-02-24T21:46:12.025Z,94.72
2023-02-24T21:48:38.894Z,94.57
2023-02-24T21:51:08.666Z,94.29
2023-02-24T21:53:39.046Z,94.25
2023-02-24T21:56:10.828Z,94.08
2023-02-24T21:58:39.633Z,94.35
2023-02-24T22:01:14.944Z,94.21
2023-02-24T22:03:41.679Z,94.19
2023-02-24T22:06:13.508Z,94.63
2023-02-24T22:08:43.522Z,94.36
2023-02-24T22:11:12.127Z,94.63
2023-02-24T22:13:39.462Z,94.94
2023-02-24T22:16:19.485Z,95.37
2023-02-24T22:18:47.339Z,95.01
2023-02-24T22:21:21.991Z,95.73
2023-02-24T22:23:51.089Z,95.31
2023-02-24T22:26:19.152Z,95.91
2023-02-24T22:28:47.231Z,96.58
2023-02-24T22:31:17.461Z,96.75
2023-02-24T22:33:44.763Z,96.60
2023-02-24T22:36:14.545Z,96.71
2023-02-24T22:38:42.177Z,96.53
2023-02-24T22:41:12.242Z,97.24
2023-02-24T22:43:38.799Z,97.18
2023-02-24T22:46:09.066Z,97.42
2023-02-24T22:48:37.137Z,97.83
2023-02-24T22:51:05.831Z,97.74
2023-02-24T22:53:34.427Z,97.66
2023-02-24T22:56:00.892Z,97.97
2023-02-24T22:58:27.522Z,97.98
2023-02-24T23:00:55.118Z,98.46
2023-02-24T23:03:28.212Z,98.22
2023-02-24T23:06:02.641Z,98.25
2023-02-24T23:08:31.945Z,98.17
2023-02-24T23:11:14.090Z,97.75
2023-02-24T23:13:42.861Z,97.82
2023-02-24T23:16:14.050Z,97.91
2023-02-24T23:18:41.616Z,97.73
2023-02-24T23:21:09.645Z,98.03
2023-02-24T23:23:37.585Z,98.15
2023-02-24T23:26:05.442Z,97.91
2023-02-24T23:28:32.380Z,97.83
2023-02-24T23:30:59.457Z,97.89
2023-02-24T23:33:26.511Z,97.73
2023-02-24T23:35:53.091Z,97.51
2023-02-24T23:38:19.727Z,97.48
2023-02-24T23:40:50.811Z,97.49
2023-02-24T23:43:18.115Z,97.10
2023-02-24T23:45:44.767Z,96.64
2023-02-24T23:48:13.554Z,96.55
2023-02-24T23:50:41.447Z,97.00
2023-02-24T23:53:09.004Z,96.84
2023-02-24T23:55:38.304Z,96.51
2023-02-24T23:58:05.343Z,96.63
